sensor_id;sensor_type;location;lat;lon;timestamp;temperature;humidity
62991;DHT22;49084;48.204;16.202;2023-04-15T00:01:24;4.70;99.90
62991;DHT22;49084;48.204;16.202;2023-04-15T00:03:52;4.70;99.90
62991;DHT22;49084;48.204;16.202;2023-04-15T00:06:19;4.70;99.90
62991;DHT22;49084;48.204;16.202;2023-04-15T00:08:45;4.60;99.90
62991;DHT22;49084;48.204;16.202;2023-04-15T00:11:12;4.60;99.90
62991;DHT22;49084;48.204;16.202;2023-04-15T00:13:38;4.60;99.90
62991;DHT22;49084;48.204;16.202;2023-04-15T00:16:05;4.60;99.90
62991;DHT22;49084;48.204;16.202;2023-04-15T00:18:31;4.60;99.90
62991;DHT22;49084;48.204;16.202;2023-04-15T00:20:57;4.60;99.90
62991;DHT22;49084;48.204;16.202;2023-04-15T00:23:23;4.70;99.90
62991;DHT22;49084;48.204;16.202;2023-04-15T00:25:49;4.70;99.90
62991;DHT22;49084;48.204;16.202;2023-04-15T00:28:15;5.00;99.90
62991;DHT22;49084;48.204;16.202;2023-04-15T00:30:41;4.70;99.90
62991;DHT22;49084;48.204;16.202;2023-04-15T00:33:06;4.70;99.90
62991;DHT22;49084;48.204;16.202;2023-04-15T00:35:33;4.60;99.90
62991;DHT22;49084;48.204;16.202;2023-04-15T00:37:59;4.60;99.90
62991;DHT22;49084;48.204;16.202;2023-04-15T00:40:24;4.50;99.90
62991;DHT22;49084;48.204;16.202;2023-04-15T00:42:50;4.50;99.90
62991;DHT22;49084;48.204;16.202;2023-04-15T00:45:17;4.60;99.90
62991;DHT22;49084;48.204;16.202;2023-04-15T00:47:43;4.60;99.90
62991;DHT22;49084;48.204;16.202;2023-04-15T00:50:10;4.60;99.90
62991;DHT22;49084;48.204;16.202;2023-04-15T00:52:37;4.50;99.90
62991;DHT22;49084;48.204;16.202;2023-04-15T00:55:04;5.50;99.90
62991;DHT22;49084;48.204;16.202;2023-04-15T00:57:30;4.50;99.90
62991;DHT22;49084;48.204;16.202;2023-04-15T00:59:56;4.50;99.90
62991;DHT22;49084;48.204;16.202;2023-04-15T01:02:23;4.50;99.90
62991;DHT22;49084;48.204;16.202;2023-04-15T01:04:48;4.50;99.90
62991;DHT22;49084;48.204;16.202;2023-04-15T01:07:14;4.50;99.90
62991;DHT22;49084;48.204;16.202;2023-04-15T01:09:40;4.50;99.90
62991;DHT22;49084;48.204;16.202;2023-04-15T01:12:06;4.40;99.90
62991;DHT22;49084;48.204;16.202;2023-04-15T01:14:34;4.40;99.90
62991;DHT22;49084;48.204;16.202;2023-04-15T01:17:00;4.30;99.90
62991;DHT22;49084;48.204;16.202;2023-04-15T01:19:26;4.20;99.90
62991;DHT22;49084;48.204;16.202;2023-04-15T01:21:53;4.20;99.90
62991;DHT22;49084;48.204;16.202;2023-04-15T01:24:19;4.20;99.90
62991;DHT22;49084;48.204;16.202;2023-04-15T01:26:45;4.10;99.90
62991;DHT22;49084;48.204;16.202;2023-04-15T01:29:11;4.10;99.90
62991;DHT22;49084;48.204;16.202;2023-04-15T01:31:37;5.30;99.90
62991;DHT22;49084;48.204;16.202;2023-04-15T01:34:03;4.10;99.90
62991;DHT22;49084;48.204;16.202;2023-04-15T01:36:29;4.10;99.90
62991;DHT22;49084;48.204;16.202;2023-04-15T01:38:55;4.10;99.90
62991;DHT22;49084;48.204;16.202;2023-04-15T01:41:27;4.10;99.90
62991;DHT22;49084;48.204;16.202;2023-04-15T01:43:53;4.10;99.90
62991;DHT22;49084;48.204;16.202;2023-04-15T01:46:19;4.20;99.90
62991;DHT22;49084;48.204;16.202;2023-04-15T01:48:45;4.10;99.90
62991;DHT22;49084;48.204;16.202;2023-04-15T01:51:11;4.10;99.90
62991;DHT22;49084;48.204;16.202;2023-04-15T01:53:37;4.10;99.90
62991;DHT22;49084;48.204;16.202;2023-04-15T01:56:03;5.90;99.90
62991;DHT22;49084;48.204;16.202;2023-04-15T01:58:29;4.10;99.90
62991;DHT22;49084;48.204;16.202;2023-04-15T02:00:54;4.20;99.90
62991;DHT22;49084;48.204;16.202;2023-04-15T02:03:20;4.20;99.90
62991;DHT22;49084;48.204;16.202;2023-04-15T02:05:46;4.20;99.90
62991;DHT22;49084;48.204;16.202;2023-04-15T02:08:11;4.30;99.90
62991;DHT22;49084;48.204;16.202;2023-04-15T02:10:38;4.30;99.90
62991;DHT22;49084;48.204;16.202;2023-04-15T02:13:04;4.30;99.90
62991;DHT22;49084;48.204;16.202;2023-04-15T02:15:29;5.20;99.90
62991;DHT22;49084;48.204;16.202;2023-04-15T02:17:55;4.30;99.90
62991;DHT22;49084;48.204;16.202;2023-04-15T02:20:21;5.50;99.90
62991;DHT22;49084;48.204;16.202;2023-04-15T02:22:48;4.30;99.90
62991;DHT22;49084;48.204;16.202;2023-04-15T02:25:14;4.30;99.90
62991;DHT22;49084;48.204;16.202;2023-04-15T02:27:41;4.30;99.90
62991;DHT22;49084;48.204;16.202;2023-04-15T02:30:07;5.20;99.90
62991;DHT22;49084;48.204;16.202;2023-04-15T02:32:33;4.30;99.90
62991;DHT22;49084;48.204;16.202;2023-04-15T02:35:07;5.00;99.90
62991;DHT22;49084;48.204;16.202;2023-04-15T02:37:35;4.30;99.90
62991;DHT22;49084;48.204;16.202;2023-04-15T02:40:07;4.30;99.90
62991;DHT22;49084;48.204;16.202;2023-04-15T02:42:32;4.30;99.90
62991;DHT22;49084;48.204;16.202;2023-04-15T02:44:58;4.30;99.90
62991;DHT22;49084;48.204;16.202;2023-04-15T02:47:24;4.30;99.90
62991;DHT22;49084;48.204;16.202;2023-04-15T02:49:49;4.20;99.90
62991;DHT22;49084;48.204;16.202;2023-04-15T02:52:15;4.20;99.90
62991;DHT22;49084;48.204;16.202;2023-04-15T02:54:41;4.30;99.90
62991;DHT22;49084;48.204;16.202;2023-04-15T02:57:06;4.20;99.90
62991;DHT22;49084;48.204;16.202;2023-04-15T02:59:32;5.70;99.90
62991;DHT22;49084;48.204;16.202;2023-04-15T03:01:58;4.10;99.90
62991;DHT22;49084;48.204;16.202;2023-04-15T03:06:54;4.10;99.90
62991;DHT22;49084;48.204;16.202;2023-04-15T03:09:21;4.10;99.90
62991;DHT22;49084;48.204;16.202;2023-04-15T03:11:46;4.10;99.90
62991;DHT22;49084;48.204;16.202;2023-04-15T03:14:12;4.30;99.90
62991;DHT22;49084;48.204;16.202;2023-04-15T03:16:37;4.00;99.90
62991;DHT22;49084;48.204;16.202;2023-04-15T03:19:03;4.00;99.90
62991;DHT22;49084;48.204;16.202;2023-04-15T03:21:28;4.00;99.90
62991;DHT22;49084;48.204;16.202;2023-04-15T03:23:56;4.90;99.90
62991;DHT22;49084;48.204;16.202;2023-04-15T03:26:28;3.90;99.90
62991;DHT22;49084;48.204;16.202;2023-04-15T03:28:55;4.20;99.90
62991;DHT22;49084;48.204;16.202;2023-04-15T03:31:21;4.00;99.90
62991;DHT22;49084;48.204;16.202;2023-04-15T03:33:46;3.90;99.90
62991;DHT22;49084;48.204;16.202;2023-04-15T03:36:12;3.90;99.90
62991;DHT22;49084;48.204;16.202;2023-04-15T03:38:37;3.80;99.90
62991;DHT22;49084;48.204;16.202;2023-04-15T03:41:03;4.30;99.90
62991;DHT22;49084;48.204;16.202;2023-04-15T03:43:29;3.70;99.90
62991;DHT22;49084;48.204;16.202;2023-04-15T03:45:55;3.70;99.90
62991;DHT22;49084;48.204;16.202;2023-04-15T03:48:21;4.40;99.90
62991;DHT22;49084;48.204;16.202;2023-04-15T03:50:47;3.60;99.90
62991;DHT22;49084;48.204;16.202;2023-04-15T03:53:12;4.60;99.90
62991;DHT22;49084;48.204;16.202;2023-04-15T03:55:38;4.70;99.90
62991;DHT22;49084;48.204;16.202;2023-04-15T03:58:04;3.60;99.90
62991;DHT22;49084;48.204;16.202;2023-04-15T04:00:30;3.50;99.90
62991;DHT22;49084;48.204;16.202;2023-04-15T04:02:55;3.50;99.90
62991;DHT22;49084;48.204;16.202;2023-04-15T04:05:21;3.60;99.90
62991;DHT22;49084;48.204;16.202;2023-04-15T04:07:47;3.50;99.90
62991;DHT22;49084;48.204;16.202;2023-04-15T04:10:13;4.20;99.90
62991;DHT22;49084;48.204;16.202;2023-04-15T04:12:38;3.50;99.90
62991;DHT22;49084;48.204;16.202;2023-04-15T04:15:04;3.50;99.90
62991;DHT22;49084;48.204;16.202;2023-04-15T04:17:31;3.50;99.90
62991;DHT22;49084;48.204;16.202;2023-04-15T04:19:57;3.50;99.90
62991;DHT22;49084;48.204;16.202;2023-04-15T04:22:23;3.50;99.90
62991;DHT22;49084;48.204;16.202;2023-04-15T04:24:49;3.50;99.90
62991;DHT22;49084;48.204;16.202;2023-04-15T04:27:15;3.50;99.90
62991;DHT22;49084;48.204;16.202;2023-04-15T04:29:41;3.50;99.90
62991;DHT22;49084;48.204;16.202;2023-04-15T04:32:06;3.50;99.90
62991;DHT22;49084;48.204;16.202;2023-04-15T04:34:32;3.50;99.90
62991;DHT22;49084;48.204;16.202;2023-04-15T04:36:58;3.50;99.90
62991;DHT22;49084;48.204;16.202;2023-04-15T04:39:24;3.60;99.90
62991;DHT22;49084;48.204;16.202;2023-04-15T04:41:49;3.60;99.90
62991;DHT22;49084;48.204;16.202;2023-04-15T04:44:16;3.60;99.90
62991;DHT22;49084;48.204;16.202;2023-04-15T04:46:42;3.60;99.90
62991;DHT22;49084;48.204;16.202;2023-04-15T04:49:08;3.60;99.90
62991;DHT22;49084;48.204;16.202;2023-04-15T04:51:33;3.60;99.90
62991;DHT22;49084;48.204;16.202;2023-04-15T04:53:59;3.70;99.90
62991;DHT22;49084;48.204;16.202;2023-04-15T04:56:25;3.80;99.90
62991;DHT22;49084;48.204;16.202;2023-04-15T04:58:51;3.80;99.90
62991;DHT22;49084;48.204;16.202;2023-04-15T05:01:17;3.80;99.90
62991;DHT22;49084;48.204;16.202;2023-04-15T05:03:43;3.80;99.90
62991;DHT22;49084;48.204;16.202;2023-04-15T05:06:09;3.80;99.90
62991;DHT22;49084;48.204;16.202;2023-04-15T05:08:35;3.90;99.90
62991;DHT22;49084;48.204;16.202;2023-04-15T05:11:01;3.90;99.90
62991;DHT22;49084;48.204;16.202;2023-04-15T05:13:26;3.90;99.90
62991;DHT22;49084;48.204;16.202;2023-04-15T05:15:52;3.90;99.90
62991;DHT22;49084;48.204;16.202;2023-04-15T05:18:18;3.90;99.90
62991;DHT22;49084;48.204;16.202;2023-04-15T05:20:43;3.90;99.90
62991;DHT22;49084;48.204;16.202;2023-04-15T05:23:09;4.20;99.90
62991;DHT22;49084;48.204;16.202;2023-04-15T05:25:35;4.00;99.90
62991;DHT22;49084;48.204;16.202;2023-04-15T05:28:00;4.00;99.90
62991;DHT22;49084;48.204;16.202;2023-04-15T05:30:26;4.00;99.90
62991;DHT22;49084;48.204;16.202;2023-04-15T05:32:52;4.10;99.90
62991;DHT22;49084;48.204;16.202;2023-04-15T05:35:17;4.10;99.90
62991;DHT22;49084;48.204;16.202;2023-04-15T05:37:43;6.00;99.90
62991;DHT22;49084;48.204;16.202;2023-04-15T05:40:09;4.20;99.90
62991;DHT22;49084;48.204;16.202;2023-04-15T05:42:35;4.10;99.90
62991;DHT22;49084;48.204;16.202;2023-04-15T05:45:01;4.20;99.90
62991;DHT22;49084;48.204;16.202;2023-04-15T05:47:30;4.20;99.90
62991;DHT22;49084;48.204;16.202;2023-04-15T05:49:56;4.20;99.90
62991;DHT22;49084;48.204;16.202;2023-04-15T05:52:23;4.20;99.90
62991;DHT22;49084;48.204;16.202;2023-04-15T05:54:49;4.30;99.90
62991;DHT22;49084;48.204;16.202;2023-04-15T05:57:15;4.30;99.90
62991;DHT22;49084;48.204;16.202;2023-04-15T05:59:41;4.30;99.90
62991;DHT22;49084;48.204;16.202;2023-04-15T06:02:07;4.40;99.90
62991;DHT22;49084;48.204;16.202;2023-04-15T06:04:34;4.50;99.90
62991;DHT22;49084;48.204;16.202;2023-04-15T06:06:59;4.50;99.90
62991;DHT22;49084;48.204;16.202;2023-04-15T06:09:25;5.00;99.90
62991;DHT22;49084;48.204;16.202;2023-04-15T06:11:51;5.20;99.90
62991;DHT22;49084;48.204;16.202;2023-04-15T06:14:17;4.60;99.90
62991;DHT22;49084;48.204;16.202;2023-04-15T06:16:43;4.70;99.90
62991;DHT22;49084;48.204;16.202;2023-04-15T06:19:08;4.70;99.90
62991;DHT22;49084;48.204;16.202;2023-04-15T06:21:34;4.80;99.90
62991;DHT22;49084;48.204;16.202;2023-04-15T06:24:00;5.70;99.90
62991;DHT22;49084;48.204;16.202;2023-04-15T06:26:26;4.90;99.90
62991;DHT22;49084;48.204;16.202;2023-04-15T06:28:52;4.90;99.90
62991;DHT22;49084;48.204;16.202;2023-04-15T06:31:18;5.00;99.90
62991;DHT22;49084;48.204;16.202;2023-04-15T06:33:44;5.00;99.90
62991;DHT22;49084;48.204;16.202;2023-04-15T06:36:10;5.00;99.90
62991;DHT22;49084;48.204;16.202;2023-04-15T06:38:35;5.10;99.90
62991;DHT22;49084;48.204;16.202;2023-04-15T06:41:02;5.10;99.90
62991;DHT22;49084;48.204;16.202;2023-04-15T06:43:28;5.10;99.90
62991;DHT22;49084;48.204;16.202;2023-04-15T06:45:54;5.20;99.90
62991;DHT22;49084;48.204;16.202;2023-04-15T06:48:21;5.30;99.90
62991;DHT22;49084;48.204;16.202;2023-04-15T06:50:47;5.30;99.90
62991;DHT22;49084;48.204;16.202;2023-04-15T06:53:13;5.40;99.90
62991;DHT22;49084;48.204;16.202;2023-04-15T06:55:39;5.40;99.90
62991;DHT22;49084;48.204;16.202;2023-04-15T06:58:06;5.50;99.90
62991;DHT22;49084;48.204;16.202;2023-04-15T07:00:31;5.50;99.90
62991;DHT22;49084;48.204;16.202;2023-04-15T07:02:58;5.50;99.90
62991;DHT22;49084;48.204;16.202;2023-04-15T07:05:28;5.50;99.90
62991;DHT22;49084;48.204;16.202;2023-04-15T07:07:54;5.60;99.90
62991;DHT22;49084;48.204;16.202;2023-04-15T07:10:20;5.60;99.90
62991;DHT22;49084;48.204;16.202;2023-04-15T07:12:46;5.60;99.90
62991;DHT22;49084;48.204;16.202;2023-04-15T07:15:12;5.60;99.90
62991;DHT22;49084;48.204;16.202;2023-04-15T07:17:38;5.60;99.90
62991;DHT22;49084;48.204;16.202;2023-04-15T07:20:03;5.60;99.90
62991;DHT22;49084;48.204;16.202;2023-04-15T07:22:29;5.70;99.90
62991;DHT22;49084;48.204;16.202;2023-04-15T07:24:55;5.80;99.90
62991;DHT22;49084;48.204;16.202;2023-04-15T07:27:21;5.80;99.90
62991;DHT22;49084;48.204;16.202;2023-04-15T07:29:47;5.90;99.90
62991;DHT22;49084;48.204;16.202;2023-04-15T07:32:13;5.90;99.90
62991;DHT22;49084;48.204;16.202;2023-04-15T07:34:38;5.90;99.90
62991;DHT22;49084;48.204;16.202;2023-04-15T07:37:04;5.80;99.90
62991;DHT22;49084;48.204;16.202;2023-04-15T07:39:29;5.90;99.90
62991;DHT22;49084;48.204;16.202;2023-04-15T07:41:55;5.90;99.90
62991;DHT22;49084;48.204;16.202;2023-04-15T07:44:21;5.90;99.90
62991;DHT22;49084;48.204;16.202;2023-04-15T07:46:47;5.90;99.90
62991;DHT22;49084;48.204;16.202;2023-04-15T07:49:12;6.00;99.90
62991;DHT22;49084;48.204;16.202;2023-04-15T07:51:38;6.00;99.90
62991;DHT22;49084;48.204;16.202;2023-04-15T07:54:04;6.00;99.90
62991;DHT22;49084;48.204;16.202;2023-04-15T07:56:30;6.00;99.90
62991;DHT22;49084;48.204;16.202;2023-04-15T07:58:55;6.00;99.90
62991;DHT22;49084;48.204;16.202;2023-04-15T08:01:21;5.90;99.90
62991;DHT22;49084;48.204;16.202;2023-04-15T08:03:47;5.90;99.90
62991;DHT22;49084;48.204;16.202;2023-04-15T08:06:13;6.00;99.90
62991;DHT22;49084;48.204;16.202;2023-04-15T08:08:38;6.10;99.90
62991;DHT22;49084;48.204;16.202;2023-04-15T08:11:04;6.10;99.90
62991;DHT22;49084;48.204;16.202;2023-04-15T08:13:30;6.20;99.90
62991;DHT22;49084;48.204;16.202;2023-04-15T08:16:22;6.30;99.90
62991;DHT22;49084;48.204;16.202;2023-04-15T08:18:50;6.40;99.90
62991;DHT22;49084;48.204;16.202;2023-04-15T08:21:17;6.40;99.90
62991;DHT22;49084;48.204;16.202;2023-04-15T08:23:45;6.50;99.90
62991;DHT22;49084;48.204;16.202;2023-04-15T08:26:11;6.70;99.90
62991;DHT22;49084;48.204;16.202;2023-04-15T08:28:38;6.80;99.90
62991;DHT22;49084;48.204;16.202;2023-04-15T08:31:05;6.80;99.90
62991;DHT22;49084;48.204;16.202;2023-04-15T08:33:30;6.80;99.90
62991;DHT22;49084;48.204;16.202;2023-04-15T08:36:03;6.90;99.90
62991;DHT22;49084;48.204;16.202;2023-04-15T08:38:29;6.90;99.90
62991;DHT22;49084;48.204;16.202;2023-04-15T08:40:56;6.90;99.90
62991;DHT22;49084;48.204;16.202;2023-04-15T08:43:26;6.90;99.90
62991;DHT22;49084;48.204;16.202;2023-04-15T08:45:53;7.00;99.90
62991;DHT22;49084;48.204;16.202;2023-04-15T08:48:20;6.90;99.90
62991;DHT22;49084;48.204;16.202;2023-04-15T08:50:46;6.90;99.90
62991;DHT22;49084;48.204;16.202;2023-04-15T08:53:14;6.90;99.90
62991;DHT22;49084;48.204;16.202;2023-04-15T08:55:44;6.80;99.90
62991;DHT22;49084;48.204;16.202;2023-04-15T08:58:11;6.80;99.90
62991;DHT22;49084;48.204;16.202;2023-04-15T09:00:37;6.80;99.90
62991;DHT22;49084;48.204;16.202;2023-04-15T09:03:07;6.80;99.90
62991;DHT22;49084;48.204;16.202;2023-04-15T09:05:34;6.90;99.90
62991;DHT22;49084;48.204;16.202;2023-04-15T09:08:01;6.80;99.90
62991;DHT22;49084;48.204;16.202;2023-04-15T09:10:27;6.90;99.90
62991;DHT22;49084;48.204;16.202;2023-04-15T09:12:54;6.80;99.90
62991;DHT22;49084;48.204;16.202;2023-04-15T09:15:20;6.80;99.90
62991;DHT22;49084;48.204;16.202;2023-04-15T09:17:46;6.80;99.90
62991;DHT22;49084;48.204;16.202;2023-04-15T09:20:14;6.80;99.90
62991;DHT22;49084;48.204;16.202;2023-04-15T09:22:41;6.80;99.90
62991;DHT22;49084;48.204;16.202;2023-04-15T09:28:00;6.90;99.90
62991;DHT22;49084;48.204;16.202;2023-04-15T09:30:28;6.80;99.90
62991;DHT22;49084;48.204;16.202;2023-04-15T09:32:59;6.70;99.90
62991;DHT22;49084;48.204;16.202;2023-04-15T09:35:26;6.60;99.90
62991;DHT22;49084;48.204;16.202;2023-04-15T09:38:00;6.50;99.90
62991;DHT22;49084;48.204;16.202;2023-04-15T09:40:34;6.60;99.90
62991;DHT22;49084;48.204;16.202;2023-04-15T09:43:02;6.60;99.90
62991;DHT22;49084;48.204;16.202;2023-04-15T09:45:28;6.60;99.90
62991;DHT22;49084;48.204;16.202;2023-04-15T09:47:56;6.70;99.90
62991;DHT22;49084;48.204;16.202;2023-04-15T09:50:26;6.70;99.90
62991;DHT22;49084;48.204;16.202;2023-04-15T09:52:52;6.60;99.90
62991;DHT22;49084;48.204;16.202;2023-04-15T09:55:18;6.60;99.90
62991;DHT22;49084;48.204;16.202;2023-04-15T09:57:44;6.70;99.90
62991;DHT22;49084;48.204;16.202;2023-04-15T10:00:12;6.70;99.90
62991;DHT22;49084;48.204;16.202;2023-04-15T10:02:41;6.60;99.90
62991;DHT22;49084;48.204;16.202;2023-04-15T10:05:13;6.50;99.90
62991;DHT22;49084;48.204;16.202;2023-04-15T10:07:39;6.50;99.90
62991;DHT22;49084;48.204;16.202;2023-04-15T10:10:07;6.40;99.90
62991;DHT22;49084;48.204;16.202;2023-04-15T10:12:36;6.30;99.90
62991;DHT22;49084;48.204;16.202;2023-04-15T10:15:05;6.40;99.90
62991;DHT22;49084;48.204;16.202;2023-04-15T10:17:32;6.40;99.90
62991;DHT22;49084;48.204;16.202;2023-04-15T10:20:03;6.60;99.90
62991;DHT22;49084;48.204;16.202;2023-04-15T10:22:30;6.50;99.90
62991;DHT22;49084;48.204;16.202;2023-04-15T10:24:56;6.50;99.90
62991;DHT22;49084;48.204;16.202;2023-04-15T10:27:23;6.60;99.90
62991;DHT22;49084;48.204;16.202;2023-04-15T10:29:49;6.60;99.90
62991;DHT22;49084;48.204;16.202;2023-04-15T10:32:18;6.70;99.90
62991;DHT22;49084;48.204;16.202;2023-04-15T10:34:46;6.60;99.90
62991;DHT22;49084;48.204;16.202;2023-04-15T10:37:33;6.60;99.90
62991;DHT22;49084;48.204;16.202;2023-04-15T10:39:59;6.60;99.90
62991;DHT22;49084;48.204;16.202;2023-04-15T10:42:33;6.70;99.90
62991;DHT22;49084;48.204;16.202;2023-04-15T10:44:59;6.70;99.90
62991;DHT22;49084;48.204;16.202;2023-04-15T10:47:24;6.80;99.90
62991;DHT22;49084;48.204;16.202;2023-04-15T10:50:00;6.80;99.90
62991;DHT22;49084;48.204;16.202;2023-04-15T10:52:28;6.70;99.90
62991;DHT22;49084;48.204;16.202;2023-04-15T10:55:19;6.70;99.90
62991;DHT22;49084;48.204;16.202;2023-04-15T10:57:45;6.90;99.90
62991;DHT22;49084;48.204;16.202;2023-04-15T11:05:19;7.10;99.90
62991;DHT22;49084;48.204;16.202;2023-04-15T11:12:42;7.20;99.90
62991;DHT22;49084;48.204;16.202;2023-04-15T11:17:52;7.40;99.90
62991;DHT22;49084;48.204;16.202;2023-04-15T11:20:18;7.50;99.90
62991;DHT22;49084;48.204;16.202;2023-04-15T11:22:51;7.60;99.90
62991;DHT22;49084;48.204;16.202;2023-04-15T11:25:24;7.50;99.90
62991;DHT22;49084;48.204;16.202;2023-04-15T11:27:52;7.40;99.90
62991;DHT22;49084;48.204;16.202;2023-04-15T11:32:48;7.40;99.90
62991;DHT22;49084;48.204;16.202;2023-04-15T11:35:15;7.40;99.90
62991;DHT22;49084;48.204;16.202;2023-04-15T11:37:41;7.30;99.90
62991;DHT22;49084;48.204;16.202;2023-04-15T11:40:08;7.30;99.90
62991;DHT22;49084;48.204;16.202;2023-04-15T11:42:33;7.30;99.90
62991;DHT22;49084;48.204;16.202;2023-04-15T11:45:13;7.30;99.90
62991;DHT22;49084;48.204;16.202;2023-04-15T11:47:40;7.20;99.90
62991;DHT22;49084;48.204;16.202;2023-04-15T11:52:39;7.10;99.90
62991;DHT22;49084;48.204;16.202;2023-04-15T11:55:06;7.10;99.90
62991;DHT22;49084;48.204;16.202;2023-04-15T11:57:34;7.10;99.90
62991;DHT22;49084;48.204;16.202;2023-04-15T12:00:00;7.20;99.90
62991;DHT22;49084;48.204;16.202;2023-04-15T12:02:30;7.30;99.90
62991;DHT22;49084;48.204;16.202;2023-04-15T12:05:03;7.20;99.90
62991;DHT22;49084;48.204;16.202;2023-04-15T12:07:29;7.30;99.90
62991;DHT22;49084;48.204;16.202;2023-04-15T12:09:56;7.30;99.90
62991;DHT22;49084;48.204;16.202;2023-04-15T12:12:26;7.30;99.90
62991;DHT22;49084;48.204;16.202;2023-04-15T12:14:52;7.30;99.90
62991;DHT22;49084;48.204;16.202;2023-04-15T12:17:18;7.20;99.90
62991;DHT22;49084;48.204;16.202;2023-04-15T12:19:44;7.20;99.90
62991;DHT22;49084;48.204;16.202;2023-04-15T12:22:11;7.10;99.90
62991;DHT22;49084;48.204;16.202;2023-04-15T12:24:38;7.10;99.90
62991;DHT22;49084;48.204;16.202;2023-04-15T12:29:31;7.20;99.90
62991;DHT22;49084;48.204;16.202;2023-04-15T12:32:17;7.10;99.90
62991;DHT22;49084;48.204;16.202;2023-04-15T12:34:52;7.20;99.90
62991;DHT22;49084;48.204;16.202;2023-04-15T12:37:19;7.20;99.90
62991;DHT22;49084;48.204;16.202;2023-04-15T12:39:47;7.40;99.90
62991;DHT22;49084;48.204;16.202;2023-04-15T12:42:14;7.40;99.90
62991;DHT22;49084;48.204;16.202;2023-04-15T12:44:40;7.40;99.90
62991;DHT22;49084;48.204;16.202;2023-04-15T12:47:07;7.40;99.90
62991;DHT22;49084;48.204;16.202;2023-04-15T12:49:33;7.60;99.90
62991;DHT22;49084;48.204;16.202;2023-04-15T12:52:00;7.70;99.90
62991;DHT22;49084;48.204;16.202;2023-04-15T12:54:26;7.80;99.90
62991;DHT22;49084;48.204;16.202;2023-04-15T12:56:52;7.90;99.90
62991;DHT22;49084;48.204;16.202;2023-04-15T12:59:19;8.10;99.90
62991;DHT22;49084;48.204;16.202;2023-04-15T13:01:46;8.10;99.90
62991;DHT22;49084;48.204;16.202;2023-04-15T13:04:13;8.10;99.90
62991;DHT22;49084;48.204;16.202;2023-04-15T13:06:39;8.10;99.90
62991;DHT22;49084;48.204;16.202;2023-04-15T13:09:05;8.20;99.90
62991;DHT22;49084;48.204;16.202;2023-04-15T13:11:31;8.20;99.90
62991;DHT22;49084;48.204;16.202;2023-04-15T13:14:02;8.20;99.90
62991;DHT22;49084;48.204;16.202;2023-04-15T13:16:28;8.10;99.90
62991;DHT22;49084;48.204;16.202;2023-04-15T13:18:53;8.10;99.90
62991;DHT22;49084;48.204;16.202;2023-04-15T13:21:19;7.90;99.90
62991;DHT22;49084;48.204;16.202;2023-04-15T13:23:45;8.00;99.90
62991;DHT22;49084;48.204;16.202;2023-04-15T13:26:11;8.10;99.90
62991;DHT22;49084;48.204;16.202;2023-04-15T13:28:37;8.20;99.90
62991;DHT22;49084;48.204;16.202;2023-04-15T13:31:03;8.50;99.90
62991;DHT22;49084;48.204;16.202;2023-04-15T13:33:29;8.70;99.90
62991;DHT22;49084;48.204;16.202;2023-04-15T13:35:55;8.60;99.90
62991;DHT22;49084;48.204;16.202;2023-04-15T13:38:23;8.50;99.90
62991;DHT22;49084;48.204;16.202;2023-04-15T13:40:48;8.40;99.90
62991;DHT22;49084;48.204;16.202;2023-04-15T13:43:14;8.30;99.90
62991;DHT22;49084;48.204;16.202;2023-04-15T13:45:40;8.30;99.90
62991;DHT22;49084;48.204;16.202;2023-04-15T13:48:05;8.40;99.90
62991;DHT22;49084;48.204;16.202;2023-04-15T13:50:31;8.70;99.90
62991;DHT22;49084;48.204;16.202;2023-04-15T13:52:57;9.00;99.90
62991;DHT22;49084;48.204;16.202;2023-04-15T13:55:22;9.20;99.90
62991;DHT22;49084;48.204;16.202;2023-04-15T13:57:48;9.30;99.90
62991;DHT22;49084;48.204;16.202;2023-04-15T14:00:15;9.00;99.90
62991;DHT22;49084;48.204;16.202;2023-04-15T14:02:41;8.70;99.90
62991;DHT22;49084;48.204;16.202;2023-04-15T14:05:07;8.60;99.90
62991;DHT22;49084;48.204;16.202;2023-04-15T14:07:33;8.50;99.90
62991;DHT22;49084;48.204;16.202;2023-04-15T14:10:05;8.50;99.90
62991;DHT22;49084;48.204;16.202;2023-04-15T14:12:31;8.50;99.90
62991;DHT22;49084;48.204;16.202;2023-04-15T14:14:56;8.40;99.90
62991;DHT22;49084;48.204;16.202;2023-04-15T14:17:22;8.40;99.90
62991;DHT22;49084;48.204;16.202;2023-04-15T14:19:48;8.30;99.90
62991;DHT22;49084;48.204;16.202;2023-04-15T14:22:13;8.20;99.90
62991;DHT22;49084;48.204;16.202;2023-04-15T14:24:39;8.20;99.90
62991;DHT22;49084;48.204;16.202;2023-04-15T14:27:05;8.10;99.90
62991;DHT22;49084;48.204;16.202;2023-04-15T14:29:31;8.00;99.90
62991;DHT22;49084;48.204;16.202;2023-04-15T14:31:56;8.00;99.90
62991;DHT22;49084;48.204;16.202;2023-04-15T14:34:23;8.00;99.90
62991;DHT22;49084;48.204;16.202;2023-04-15T14:36:50;8.00;99.90
62991;DHT22;49084;48.204;16.202;2023-04-15T14:39:17;8.00;99.90
62991;DHT22;49084;48.204;16.202;2023-04-15T14:41:43;8.00;99.90
62991;DHT22;49084;48.204;16.202;2023-04-15T14:44:09;8.00;99.90
62991;DHT22;49084;48.204;16.202;2023-04-15T14:46:36;8.00;99.90
62991;DHT22;49084;48.204;16.202;2023-04-15T14:49:02;7.80;99.90
62991;DHT22;49084;48.204;16.202;2023-04-15T14:51:28;7.90;99.90
62991;DHT22;49084;48.204;16.202;2023-04-15T14:53:53;7.80;99.90
62991;DHT22;49084;48.204;16.202;2023-04-15T14:56:19;7.80;99.90
62991;DHT22;49084;48.204;16.202;2023-04-15T14:58:45;7.80;99.90
62991;DHT22;49084;48.204;16.202;2023-04-15T15:01:11;7.80;99.90
62991;DHT22;49084;48.204;16.202;2023-04-15T15:03:37;7.90;99.90
62991;DHT22;49084;48.204;16.202;2023-04-15T15:06:03;7.70;99.90
62991;DHT22;49084;48.204;16.202;2023-04-15T15:08:29;7.70;99.90
62991;DHT22;49084;48.204;16.202;2023-04-15T15:10:55;7.70;99.90
62991;DHT22;49084;48.204;16.202;2023-04-15T15:13:20;7.60;99.90
62991;DHT22;49084;48.204;16.202;2023-04-15T15:15:46;7.60;99.90
62991;DHT22;49084;48.204;16.202;2023-04-15T15:18:14;7.60;99.90
62991;DHT22;49084;48.204;16.202;2023-04-15T15:20:41;7.70;99.90
62991;DHT22;49084;48.204;16.202;2023-04-15T15:23:07;7.80;99.90
62991;DHT22;49084;48.204;16.202;2023-04-15T15:25:33;7.80;99.90
62991;DHT22;49084;48.204;16.202;2023-04-15T15:27:58;7.90;99.90
62991;DHT22;49084;48.204;16.202;2023-04-15T15:30:24;8.00;99.90
62991;DHT22;49084;48.204;16.202;2023-04-15T15:32:50;8.00;99.90
62991;DHT22;49084;48.204;16.202;2023-04-15T15:35:16;8.00;99.90
62991;DHT22;49084;48.204;16.202;2023-04-15T15:37:42;8.00;99.90
62991;DHT22;49084;48.204;16.202;2023-04-15T15:40:09;8.00;99.90
62991;DHT22;49084;48.204;16.202;2023-04-15T15:42:35;8.00;99.90
62991;DHT22;49084;48.204;16.202;2023-04-15T15:45:02;8.00;99.90
62991;DHT22;49084;48.204;16.202;2023-04-15T15:47:28;8.00;99.90
62991;DHT22;49084;48.204;16.202;2023-04-15T15:49:54;8.10;99.90
62991;DHT22;49084;48.204;16.202;2023-04-15T15:52:19;8.00;99.90